• Join FlightAware (Why Join?)
  • Login
  • US Flag 
07:05AM EDT


 

Airport Tracker/Info


-or-


 

Live Flight TrackerFlight Track Log ✈ RPA3275 ✈ 02-Jun-2013 ✈ KALB - KPHL

Flight Track Log - Related Links

Times and Time Zones

All times are in EDT time to prevent confusion due to time zone crossing. See the RPA3275 flight status page for this flight to view local times or setup timezone preferences in your user account.

Time Position Orientation Groundspeed Altitude Reporting Facility
EDT Latitude Longitude Course Direction KTS MPH feet Rate Location/Type
07:20AM 42.7278 -73.8081 220° Southwest 141 162 1,600  Level Boston Center
07:21AM 42.7125 -73.8614 249° West 214 246 3,700 1,860 Climbing Boston Center
07:22AM 42.7333 -74.2994 270° West  Level FlightAware Approximate
07:22AM 42.7142 -73.8925 274° West 217 250 4,300  Level Boston Center
07:23AM 42.6456 -74.4133 220° Southwest  Level FlightAware Approximate
07:23AM 42.7214 -73.9692 277° West 234 269 6,200  Level Boston Center
07:24AM 42.5529 -74.5214 223° Southwest  Level FlightAware Approximate
07:24AM 42.7161 -74.0650 266° West 252 290 9,400  Level Boston Center
07:25AM 42.4814 -74.6065 220° Southwest  Level FlightAware Approximate
07:25AM 42.6583 -74.1594 230° Southwest 252 290 12,000  Level Boston Center
07:26AM 42.6111 -74.2428 232° Southwest 285 328 14,200 2,040 Climbing Boston Center
07:27AM 42.5533 -74.3369 230° Southwest 317 365 16,100 1,260 Climbing Boston Center
07:28AM 42.4956 -74.4308 230° Southwest 325 374 16,800 1,200 Climbing Boston Center
07:29AM 42.4250 -74.5328 227° Southwest 361 415 18,500 720 Climbing Boston Center
07:31AM 42.2867 -74.7175 225° Southwest 373 429 19,000 120 Climbing New York Center
07:32AM 42.2192 -74.8058 224° Southwest 373 429 19,000  Level New York Center
07:33AM 42.1450 -74.9019 224° Southwest 373 429 19,000  Level New York Center
07:34AM 42.0642 -75.0086 224° Southwest 373 429 19,000  Level New York Center
07:35AM 41.9922 -75.1017 224° Southwest 366 421 19,000  Level New York Center
07:36AM 41.9253 -75.1669 216° Southwest 347 399 19,000  Level New York Center
07:37AM 41.8372 -75.2392 211° Southwest 334 384 19,000 -720 Level New York Center
07:38AM 41.7600 -75.3006 211° Southwest 334 384 17,600 -1,500 Descending New York Center
07:39AM 41.6825 -75.3647 212° Southwest 334 384 16,000 -1,560 Descending New York Center
07:40AM 41.6158 -75.4158 210° Southwest 328 377 14,500 -1,560 Descending New York Center
07:41AM 41.5450 -75.4744 212° Southwest 322 371 12,900 -1,320 Descending New York Center
07:42AM 41.4675 -75.5356 211° Southwest 310 357 12,000 -480 Descending New York Center
07:43AM 41.3967 -75.5914 211° Southwest 305 351 12,000  Level New York Center
07:44AM 41.3319 -75.6447 212° Southwest 305 351 12,000  Level New York Center
07:45AM 41.2508 -75.6914 203° Southwest 305 351 12,000  Level New York Center
07:46AM 41.1764 -75.6750 171° South 292 336 12,000  Level New York Center
07:47AM 41.0839 -75.6433 166° South 307 353 12,000  Level New York Center
07:48AM 41.0183 -75.6222 166° South 307 353 12,000  Level New York Center
07:49AM 40.9278 -75.5911 165° South 312 359 12,000  Level New York Center
07:50AM 40.8372 -75.5628 167° South 312 359 12,000  Level New York Center
07:51AM 40.7550 -75.5350 166° South 312 359 12,000 -420 Level New York Center
07:52AM 40.6792 -75.5078 165° South 312 359 11,200 -900 Descending New York Center
07:53AM 40.5969 -75.4803 166° South 312 359 10,300 -660 Descending New York Center
07:54AM 40.5167 -75.4556 167° South 312 359 10,000 -240 Descending New York Center
07:55AM 40.4386 -75.4258 164° South 290 334 9,900 -660 Descending New York Center
07:56AM 40.3856 -75.3950 156° South 245 282 8,700 -1,020 Descending New York Center
07:57AM 40.3231 -75.3936 179° South 225 259 7,900 -420 Descending New York Center
07:58AM 40.2561 -75.3972 182° South 219 252 7,900  Level New York Center
07:59AM 40.2039 -75.4044 186° South 214 246 8,000 -600 Climbing New York Center
08:00AM 40.1433 -75.4086 183° South 214 246 6,800 -1,020 Descending New York Center
08:01AM 40.1075 -75.3628 136° Southeast 186 214 6,000 -600 Descending New York Center
08:01AM 40.1000 -75.3167 102° East 225 259 6,000  Level Philadelphia TRACON
08:02AM 40.0667 -75.2500 123° Southeast 225 259 6,000  Level Philadelphia TRACON
08:03AM 40.0333 -75.2000 131° Southeast 196 226 6,000  Level Philadelphia TRACON
08:04AM 39.9833 -75.1667 153° Southeast 216 249 6,000  Level Philadelphia TRACON
08:05AM 40.0000 -75.0833 75° East 242 278 6,000 -540 Level Philadelphia TRACON
08:06AM 40.0167 -75.0000 75° East 234 269 5,000 -540 Descending Philadelphia TRACON
08:07AM 39.9833 -74.9333 123° Southeast 184 212 5,000 -780 Level Philadelphia TRACON
08:08AM 39.9667 -74.9667 237° Southwest 174 200 3,600 -1,020 Descending Philadelphia TRACON
08:09AM 39.9167 -75.0167 217° Southwest 160 184 3,000 -600 Descending Philadelphia TRACON
08:10AM 39.9000 -75.0667 247° West 162 186 2,400 -720 Descending Philadelphia TRACON
08:11AM 39.9000 -75.1333 270° West 162 186 1,500 -780 Descending Philadelphia TRACON
08:12AM 39.8833 -75.1833 247° West 120 138 800 -720 Descending Philadelphia TRACON
08:13AM 39.8833 -75.2167 270° West 128 147 200 -720 Descending Philadelphia TRACON